Time;durP1;ratioP1;P1;durP2;ratioP2;P2;SDS_P1;SDS_P2;PMS_P1;PMS_P2;Temp;Humidity;BMP_temperature;BMP_pressure;BME280_temperature;BME280_humidity;BME280_pressure;Samples;Min_cycle;Max_cycle;Signal;HPM_P1;HPM_P2
2021/06/02 00:02:07;;;;;;;19.50;7.80;;;14.40;99.90;;;;;;5026049;28;20180;-69
2021/06/02 00:04:36;;;;;;;18.93;8.17;;;14.50;99.90;;;;;;5032391;28;20183;-67
2021/06/02 00:07:09;;;;;;;20.60;7.07;;;14.70;99.90;;;;;;5031517;28;20263;-68
2021/06/02 00:09:38;;;;;;;17.97;6.80;;;14.80;99.90;;;;;;5031739;28;20318;-68
2021/06/02 00:12:08;;;;;;;16.10;6.00;;;14.80;99.90;;;;;;5030938;28;20197;-68
2021/06/02 00:14:37;;;;;;;16.23;6.70;;;14.90;99.90;;;;;;5031165;28;20220;-68
2021/06/02 00:17:06;;;;;;;14.80;6.83;;;15.00;99.90;;;;;;5031361;28;20631;-69
2021/06/02 00:19:34;;;;;;;22.90;6.63;;;15.10;99.90;;;;;;5029474;28;20180;-67
2021/06/02 00:22:04;;;;;;;15.17;6.93;;;15.30;99.90;;;;;;5031814;28;20671;-68
2021/06/02 00:24:31;;;;;;;17.10;6.03;;;15.40;99.90;;;;;;5031607;28;20173;-68
2021/06/02 00:27:03;;;;;;;14.80;6.17;;;15.50;99.90;;;;;;5032520;28;20626;-68
2021/06/02 00:29:36;;;;;;;16.73;6.27;;;15.60;99.90;;;;;;5032200;28;20259;-68
2021/06/02 00:32:05;;;;;;;12.60;5.83;;;15.80;99.90;;;;;;5032296;28;20170;-68
2021/06/02 00:34:34;;;;;;;14.70;6.40;;;15.80;99.90;;;;;;5031826;28;20211;-67
2021/06/02 00:37:03;;;;;;;14.50;5.67;;;16.00;99.90;;;;;;5031904;28;20173;-68
2021/06/02 00:39:31;;;;;;;22.67;8.33;;;16.10;99.90;;;;;;5030608;28;20237;-68
2021/06/02 00:41:59;;;;;;;17.20;6.87;;;16.20;99.90;;;;;;5031217;28;20176;-68
2021/06/02 00:44:27;;;;;;;20.53;6.63;;;16.30;99.90;;;;;;5031090;28;20179;-67
2021/06/02 00:46:58;;;;;;;19.30;7.40;;;16.50;99.90;;;;;;5031582;28;20208;-70
2021/06/02 00:49:26;;;;;;;18.73;5.87;;;16.60;99.90;;;;;;5031989;28;20209;-68
2021/06/02 00:52:05;;;;;;;15.67;6.63;;;16.60;99.90;;;;;;5032175;28;20687;-67
2021/06/02 00:54:37;;;;;;;12.57;6.97;;;16.70;99.90;;;;;;5020315;28;20222;-69
2021/06/02 00:57:15;;;;;;;12.37;5.03;;;16.70;99.90;;;;;;5029335;28;20200;-68
2021/06/02 00:59:49;;;;;;;14.40;6.37;;;16.70;99.90;;;;;;5032078;28;20170;-69
2021/06/02 01:02:22;;;;;;;16.80;6.13;;;16.70;99.90;;;;;;5031267;28;20269;-68
2021/06/02 01:04:51;;;;;;;14.83;6.33;;;16.80;99.90;;;;;;5031445;28;20592;-69
2021/06/02 01:07:22;;;;;;;14.03;7.13;;;16.90;99.90;;;;;;5031688;28;20912;-68
2021/06/02 01:09:56;;;;;;;18.37;5.70;;;17.00;99.90;;;;;;5031439;28;20187;-68
2021/06/02 01:12:26;;;;;;;31.60;8.63;;;17.10;99.90;;;;;;5031793;28;20165;-68
2021/06/02 01:14:56;;;;;;;17.07;6.63;;;17.30;99.90;;;;;;5031570;28;20246;-68
2021/06/02 01:17:26;;;;;;;15.70;7.03;;;17.40;99.90;;;;;;5031988;28;20271;-68
2021/06/02 01:19:55;;;;;;;13.10;6.07;;;17.60;99.90;;;;;;5031336;28;20702;-68
2021/06/02 01:22:23;;;;;;;11.60;6.77;;;17.80;99.90;;;;;;5028604;28;20725;-68
2021/06/02 01:24:50;;;;;;;19.13;7.23;;;17.70;99.90;;;;;;5028433;28;20185;-69
2021/06/02 01:27:18;;;;;;;18.93;5.73;;;17.90;99.90;;;;;;5028664;28;20180;-68
2021/06/02 01:29:50;;;;;;;13.97;6.60;;;18.00;99.90;;;;;;5030231;28;20643;-67
2021/06/02 01:32:54;;;;;;;19.07;6.60;;;18.10;99.90;;;;;;5030758;28;20211;-69
2021/06/02 01:35:58;;;;;;;18.83;6.50;;;18.30;99.90;;;;;;5032373;28;20219;-67
2021/06/02 01:39:22;;;;;;;19.17;6.60;;;18.40;99.90;;;;;;5035223;28;20219;-68
2021/06/02 01:42:41;;;;;;;15.40;5.70;;;18.70;99.90;;;;;;5013469;28;20202;-68
2021/06/02 01:45:20;;;;;;;14.37;5.53;;;18.90;98.60;;;;;;4997117;28;20185;-66
2021/06/02 01:48:12;;;;;;;15.50;4.93;;;19.10;98.70;;;;;;5031206;28;20200;-69
2021/06/02 01:51:10;;;;;;;11.40;4.83;;;19.20;97.70;;;;;;5034422;28;20188;-68
2021/06/02 01:54:18;;;;;;;17.23;5.17;;;19.40;97.30;;;;;;5029441;28;20350;-67
2021/06/02 01:57:19;;;;;;;15.50;4.87;;;19.40;97.10;;;;;;5024255;28;20606;-68
2021/06/02 02:00:03;;;;;;;12.73;4.33;;;19.70;96.40;;;;;;5034471;28;20188;-69
2021/06/02 02:03:01;;;;;;;9.03;4.60;;;20.10;95.50;;;;;;5031691;28;20211;-68
2021/06/02 02:06:13;;;;;;;16.07;8.13;;;19.90;95.40;;;;;;5034046;28;20181;-69
2021/06/02 02:09:22;;;;;;;19.77;5.13;;;19.90;95.80;;;;;;5034939;28;20655;-68
2021/06/02 02:11:49;;;;;;;19.97;4.83;;;19.80;96.10;;;;;;5017596;28;20659;-69
2021/06/02 02:15:05;;;;;;;12.50;5.10;;;20.20;95.60;;;;;;5034888;28;20227;-69
2021/06/02 02:17:55;;;;;;;14.20;5.53;;;20.20;95.40;;;;;;5011917;28;20185;-68
2021/06/02 02:20:38;;;;;;;15.87;4.40;;;20.40;94.90;;;;;;5033116;28;20662;-69
2021/06/02 02:23:39;;;;;;;11.10;4.13;;;20.90;94.40;;;;;;5034789;28;20184;-69
2021/06/02 02:26:46;;;;;;;11.13;3.23;;;21.10;92.80;;;;;;5014447;28;20177;-70
2021/06/02 02:29:28;;;;;;;8.67;3.10;;;20.90;91.90;;;;;;5034529;28;20689;-67
2021/06/02 02:32:20;;;;;;;8.13;2.63;;;21.00;91.60;;;;;;5033740;28;20647;-68
2021/06/02 02:35:07;;;;;;;6.90;2.70;;;21.10;91.00;;;;;;5028084;28;20721;-68
2021/06/02 02:37:46;;;;;;;7.67;2.97;;;21.60;90.60;;;;;;5031260;28;20173;-68
2021/06/02 02:40:43;;;;;;;9.80;1.60;;;21.50;89.50;;;;;;5034154;28;20666;-68
2021/06/02 02:43:38;;;;;;;9.60;2.07;;;21.40;87.70;;;;;;5033771;28;20176;-68
2021/06/02 02:46:46;;;;;;;1.40;1.00;;;21.30;85.60;;;;;;5032283;28;20181;-68
2021/06/02 02:49:31;;;;;;;2.87;1.00;;;21.20;82.90;;;;;;5031309;28;20359;-69
2021/06/02 02:52:13;;;;;;;3.10;1.47;;;21.30;83.70;;;;;;5034288;28;20652;-69
2021/06/02 02:55:19;;;;;;;5.57;1.10;;;21.50;84.40;;;;;;5033712;28;20227;-68
2021/06/02 02:58:06;;;;;;;6.33;1.47;;;21.80;82.00;;;;;;5031008;28;20669;-68
2021/06/02 03:01:14;;;;;;;4.63;1.70;;;22.00;81.70;;;;;;5036992;28;20179;-67
2021/06/02 03:03:50;;;;;;;6.90;2.23;;;22.10;80.90;;;;;;5033859;28;20187;-69
2021/06/02 03:06:26;;;;;;;4.13;1.30;;;21.90;81.70;;;;;;5033698;28;20172;-69
2021/06/02 03:09:22;;;;;;;8.27;1.60;;;22.00;79.40;;;;;;5033782;28;20180;-69
2021/06/02 03:12:24;;;;;;;16.23;1.77;;;22.20;80.30;;;;;;5034021;28;20181;-68
2021/06/02 03:15:11;;;;;;;2.10;1.03;;;22.40;77.90;;;;;;5024368;28;20319;-68
2021/06/02 03:17:57;;;;;;;2.23;1.00;;;22.60;75.60;;;;;;5033785;28;20643;-68
2021/06/02 03:20:31;;;;;;;1.43;0.93;;;22.60;75.30;;;;;;5033607;28;20195;-67
2021/06/02 03:23:17;;;;;;;5.03;1.00;;;22.90;73.50;;;;;;5032999;28;20186;-68
2021/06/02 03:25:52;;;;;;;2.73;1.30;;;23.30;73.10;;;;;;5030635;28;20194;-69
2021/06/02 03:28:59;;;;;;;2.70;0.90;;;23.70;71.60;;;;;;5028813;28;20681;-69
2021/06/02 03:31:53;;;;;;;4.10;1.30;;;23.90;70.50;;;;;;5029765;28;20184;-67
2021/06/02 03:34:28;;;;;;;4.93;1.10;;;23.50;71.60;;;;;;5033163;28;20584;-68
2021/06/02 03:37:34;;;;;;;2.23;1.20;;;23.50;72.30;;;;;;5032403;28;20180;-69
2021/06/02 03:40:16;;;;;;;3.43;1.10;;;23.80;71.30;;;;;;5030659;28;20195;-69
2021/06/02 03:42:47;;;;;;;2.87;1.20;;;24.50;70.30;;;;;;5035726;28;20179;-68
2021/06/02 03:45:39;;;;;;;3.53;1.30;;;24.90;69.20;;;;;;5050722;28;20191;-68
2021/06/02 03:48:28;;;;;;;2.73;1.00;;;24.80;68.20;;;;;;5032975;28;20246;-69
2021/06/02 03:51:21;;;;;;;9.47;1.40;;;25.00;67.10;;;;;;5033203;28;20195;-68
2021/06/02 03:54:20;;;;;;;5.13;1.50;;;24.70;68.10;;;;;;5032634;28;20231;-69
2021/06/02 03:57:13;;;;;;;5.27;1.40;;;24.90;67.30;;;;;;5032794;28;20216;-69
2021/06/02 03:59:42;;;;;;;2.30;1.10;;;25.20;66.40;;;;;;5027047;28;20209;-68
2021/06/02 04:02:54;;;;;;;5.73;1.20;;;25.60;65.70;;;;;;5042440;28;20188;-69
2021/06/02 04:05:21;;;;;;;4.07;1.10;;;25.60;65.00;;;;;;5007409;28;20323;-70
2021/06/02 04:08:11;;;;;;;7.00;1.50;;;24.70;65.70;;;;;;5024735;28;20177;-68
2021/06/02 04:10:47;;;;;;;4.10;1.00;;;24.20;66.90;;;;;;5032272;28;20275;-69
2021/06/02 04:13:23;;;;;;;4.60;1.30;;;23.80;68.40;;;;;;5032694;28;20219;-69
2021/06/02 04:16:08;;;;;;;9.00;2.93;;;24.50;67.80;;;;;;5032718;28;20618;-70
2021/06/02 04:18:37;;;;;;;11.67;3.97;;;24.90;67.20;;;;;;5030974;28;20180;-69
2021/06/02 04:21:06;;;;;;;5.30;2.23;;;24.40;66.50;;;;;;5032079;28;20485;-69
2021/06/02 04:23:37;;;;;;;4.73;1.50;;;24.30;67.60;;;;;;5031545;28;20184;-68
2021/06/02 04:26:06;;;;;;;2.90;1.23;;;24.10;68.00;;;;;;5032729;28;20204;-68
2021/06/02 04:28:35;;;;;;;4.03;1.40;;;24.40;69.10;;;;;;5030574;28;20226;-69
2021/06/02 04:31:08;;;;;;;6.60;1.90;;;24.30;69.00;;;;;;5031701;28;20184;-69
2021/06/02 04:33:40;;;;;;;4.43;1.60;;;24.10;72.60;;;;;;5029111;28;20219;-68
2021/06/02 04:36:10;;;;;;;4.57;1.70;;;24.30;72.50;;;;;;5030059;28;20172;-68
2021/06/02 04:38:39;;;;;;;5.37;1.60;;;24.00;71.80;;;;;;5030309;28;20993;-69
2021/06/02 04:41:09;;;;;;;12.53;2.10;;;24.40;71.40;;;;;;5013154;28;20180;-68
2021/06/02 04:43:41;;;;;;;5.97;1.57;;;24.50;70.80;;;;;;5029110;28;20184;-67
2021/06/02 04:46:09;;;;;;;4.57;1.50;;;24.30;71.10;;;;;;5042573;28;20212;-68
2021/06/02 04:48:37;;;;;;;4.20;1.77;;;24.30;71.40;;;;;;5025572;28;20215;-70
2021/06/02 04:51:35;;;;;;;6.73;1.87;;;24.30;71.50;;;;;;5022830;28;20173;-69
2021/06/02 04:54:08;;;;;;;8.60;2.33;;;24.10;71.70;;;;;;5025174;28;20518;-68
2021/06/02 04:56:57;;;;;;;5.03;1.87;;;24.10;72.20;;;;;;5030562;28;20245;-68
2021/06/02 05:00:01;;;;;;;9.67;1.77;;;24.00;73.10;;;;;;5028135;28;20207;-70
2021/06/02 05:03:04;;;;;;;4.93;2.07;;;24.20;73.60;;;;;;5027850;28;20184;-69
2021/06/02 05:05:41;;;;;;;12.87;2.13;;;24.00;76.30;;;;;;5027731;28;20180;-71
2021/06/02 05:08:31;;;;;;;6.57;2.00;;;23.90;78.20;;;;;;5030017;28;20185;-70
2021/06/02 05:11:29;;;;;;;15.50;3.93;;;23.60;81.00;;;;;;5028537;28;20259;-69
2021/06/02 05:14:12;;;;;;;13.67;5.73;;;24.10;82.10;;;;;;5031972;28;20228;-70
2021/06/02 05:17:00;;;;;;;19.83;5.37;;;24.20;81.70;;;;;;5033143;28;20193;-68
2021/06/02 05:22:47;;;;;;;16.43;2.10;;;24.50;79.40;;;;;;5030301;28;20181;-68
2021/06/02 05:25:41;;;;;;;8.13;2.13;;;23.50;81.20;;;;;;5030193;28;20181;-70
2021/06/02 05:28:31;;;;;;;8.07;2.00;;;23.20;83.20;;;;;;5033026;28;20198;-69
2021/06/02 05:31:26;;;;;;;6.13;2.50;;;23.30;83.50;;;;;;5032609;28;20295;-69
2021/06/02 05:34:44;;;;;;;9.33;2.03;;;23.80;82.70;;;;;;5022978;28;20203;-69
2021/06/02 05:37:32;;;;;;;7.33;2.10;;;23.50;84.00;;;;;;5020527;28;20189;-71
2021/06/02 05:40:29;;;;;;;6.20;2.17;;;24.20;82.30;;;;;;5032151;28;20275;-69
2021/06/02 05:43:17;;;;;;;8.47;2.43;;;23.80;84.00;;;;;;5033596;28;20203;-68
2021/06/02 05:46:13;;;;;;;9.73;2.23;;;23.80;84.50;;;;;;5033135;28;20187;-69
2021/06/02 05:49:08;;;;;;;9.07;2.30;;;23.70;86.10;;;;;;5032034;28;20267;-69
2021/06/02 05:52:05;;;;;;;10.10;2.20;;;23.90;85.70;;;;;;5029210;28;20190;-68
2021/06/02 05:54:50;;;;;;;9.10;2.47;;;24.00;86.10;;;;;;5032186;28;20220;-69
2021/06/02 05:57:57;;;;;;;8.03;2.67;;;24.30;85.60;;;;;;5034231;28;20181;-68
2021/06/02 06:00:51;;;;;;;6.50;2.40;;;24.50;85.80;;;;;;5032581;28;20208;-68
2021/06/02 06:03:39;;;;;;;9.30;1.90;;;24.30;86.60;;;;;;5031274;28;20185;-68
2021/06/02 06:06:42;;;;;;;7.30;2.70;;;23.60;88.50;;;;;;5031583;28;20185;-69
2021/06/02 06:09:41;;;;;;;6.33;2.17;;;22.90;89.20;;;;;;5032807;28;20200;-69
2021/06/02 06:12:27;;;;;;;11.03;2.60;;;22.00;91.30;;;;;;5035964;28;20181;-69
2021/06/02 06:15:24;;;;;;;8.07;1.83;;;21.70;92.20;;;;;;5026494;28;20216;-68
2021/06/02 06:18:29;;;;;;;8.10;2.20;;;21.30;93.20;;;;;;5032382;28;20204;-69
2021/06/02 06:21:26;;;;;;;9.83;2.10;;;20.90;93.60;;;;;;5033584;28;20173;-69
2021/06/02 06:24:08;;;;;;;12.53;2.27;;;20.80;94.00;;;;;;5033490;28;20181;-68
2021/06/02 06:26:50;;;;;;;5.23;2.00;;;20.60;94.30;;;;;;5032276;28;20419;-70
2021/06/02 06:29:50;;;;;;;3.90;1.90;;;20.40;94.60;;;;;;5032993;28;20185;-69
2021/06/02 06:32:19;;;;;;;8.53;2.20;;;20.20;95.00;;;;;;5031775;28;20193;-68
2021/06/02 06:34:48;;;;;;;10.37;2.00;;;20.00;95.20;;;;;;5034379;28;20288;-68
2021/06/02 06:37:18;;;;;;;7.17;2.07;;;19.80;95.50;;;;;;5027797;28;20176;-68
2021/06/02 06:39:53;;;;;;;6.13;2.10;;;19.60;95.80;;;;;;5033191;28;20266;-68
2021/06/02 06:42:23;;;;;;;8.43;2.10;;;19.40;96.30;;;;;;5030050;28;20504;-68
2021/06/02 06:45:14;;;;;;;8.20;2.13;;;19.30;96.40;;;;;;5032795;28;20222;-70
2021/06/02 06:47:43;;;;;;;7.80;1.63;;;19.20;96.90;;;;;;5033981;28;20189;-70
2021/06/02 06:50:13;;;;;;;9.10;2.00;;;19.10;97.30;;;;;;5033164;28;20256;-68
2021/06/02 06:52:44;;;;;;;7.03;2.60;;;18.90;97.60;;;;;;5032300;28;20533;-69
2021/06/02 06:55:13;;;;;;;10.43;2.37;;;18.80;98.20;;;;;;5033286;28;20896;-68
2021/06/02 06:57:42;;;;;;;6.63;2.20;;;18.70;98.80;;;;;;5033305;28;20537;-69
2021/06/02 07:00:11;;;;;;;15.50;2.50;;;18.60;99.20;;;;;;5030815;28;20579;-69
2021/06/02 07:02:43;;;;;;;8.20;2.40;;;18.50;99.70;;;;;;5033111;28;20235;-69
2021/06/02 07:05:13;;;;;;;9.37;2.47;;;18.50;99.90;;;;;;5032210;28;20188;-68
2021/06/02 07:07:45;;;;;;;11.10;2.60;;;18.40;99.90;;;;;;5033012;28;20234;-69
2021/06/02 07:10:14;;;;;;;7.37;2.67;;;18.30;99.90;;;;;;5032764;28;20200;-68
2021/06/02 07:12:45;;;;;;;11.03;2.30;;;18.20;99.90;;;;;;5028271;28;20196;-68
2021/06/02 07:15:14;;;;;;;5.77;2.77;;;18.10;99.90;;;;;;5014177;28;20279;-69
2021/06/02 07:17:46;;;;;;;11.30;3.40;;;18.00;99.90;;;;;;5033464;28;20239;-68
2021/06/02 07:20:21;;;;;;;8.53;2.43;;;17.80;99.90;;;;;;5033336;28;20271;-69
2021/06/02 07:22:51;;;;;;;8.33;2.87;;;17.80;99.90;;;;;;5033573;28;20176;-70
2021/06/02 07:25:20;;;;;;;10.73;3.60;;;17.70;99.90;;;;;;5033590;28;20180;-68
2021/06/02 07:27:52;;;;;;;8.17;4.13;;;17.60;99.90;;;;;;5032754;28;20648;-69
2021/06/02 07:30:26;;;;;;;8.63;4.23;;;17.50;99.90;;;;;;5028952;28;20189;-69
2021/06/02 07:32:54;;;;;;;12.93;4.00;;;17.50;99.90;;;;;;5030298;28;20212;-68
2021/06/02 07:35:22;;;;;;;9.23;3.67;;;17.40;99.90;;;;;;5031304;28;20226;-69
2021/06/02 07:37:50;;;;;;;20.33;4.20;;;17.30;99.90;;;;;;5032319;28;20208;-69
2021/06/02 07:40:18;;;;;;;12.17;4.17;;;17.30;99.90;;;;;;5032778;28;20241;-69
2021/06/02 07:42:45;;;;;;;7.40;2.73;;;17.30;99.90;;;;;;5031272;28;20259;-69
2021/06/02 07:45:14;;;;;;;12.70;2.90;;;17.20;99.90;;;;;;5030022;28;20549;-68
2021/06/02 07:47:41;;;;;;;9.47;2.60;;;17.20;99.90;;;;;;5031020;28;20223;-69
2021/06/02 07:50:10;;;;;;;10.77;3.00;;;17.20;99.90;;;;;;5032596;28;20214;-68
2021/06/02 07:52:37;;;;;;;13.50;3.60;;;17.10;99.90;;;;;;5032472;28;20184;-69
2021/06/02 07:55:05;;;;;;;8.50;2.90;;;17.10;99.90;;;;;;5044478;28;20248;-69
2021/06/02 07:57:35;;;;;;;10.33;2.63;;;17.00;99.90;;;;;;5031983;28;20223;-68
2021/06/02 08:00:04;;;;;;;11.57;2.87;;;17.00;99.90;;;;;;5031976;28;20627;-68
2021/06/02 08:02:31;;;;;;;10.03;2.67;;;17.00;99.90;;;;;;5031086;28;20175;-68
2021/06/02 08:04:59;;;;;;;12.43;2.57;;;16.90;99.90;;;;;;5018254;28;20181;-68
2021/06/02 08:07:26;;;;;;;9.63;3.33;;;16.90;99.90;;;;;;5033688;28;20190;-69
2021/06/02 08:09:53;;;;;;;11.73;2.90;;;16.90;99.90;;;;;;5024774;28;20631;-70
2021/06/02 08:12:21;;;;;;;8.57;2.30;;;16.90;99.90;;;;;;5031976;28;20188;-68
2021/06/02 08:14:48;;;;;;;6.07;2.37;;;16.90;99.90;;;;;;5032543;28;20216;-69
2021/06/02 08:17:16;;;;;;;7.90;2.77;;;16.80;99.90;;;;;;5031888;28;20174;-70
2021/06/02 08:19:43;;;;;;;10.83;2.13;;;16.80;99.90;;;;;;5024939;28;20215;-70
2021/06/02 08:22:10;;;;;;;8.33;2.60;;;16.70;99.90;;;;;;5031258;28;20183;-69
2021/06/02 08:24:39;;;;;;;9.07;2.37;;;16.60;99.90;;;;;;5026725;28;20203;-70
2021/06/02 08:27:11;;;;;;;7.00;2.63;;;16.60;99.90;;;;;;5032326;28;20598;-68
2021/06/02 08:29:38;;;;;;;10.73;2.70;;;16.60;99.90;;;;;;5030548;28;20184;-68
2021/06/02 08:32:06;;;;;;;9.83;2.67;;;16.50;99.90;;;;;;5029975;28;20179;-68
2021/06/02 08:34:33;;;;;;;8.37;3.17;;;16.50;99.90;;;;;;5032228;28;20309;-68
2021/06/02 08:37:01;;;;;;;6.23;2.80;;;16.50;99.90;;;;;;5032028;28;20279;-69
2021/06/02 08:39:28;;;;;;;11.80;3.57;;;16.40;99.90;;;;;;5030199;28;20587;-69
2021/06/02 08:41:56;;;;;;;7.47;3.20;;;16.40;99.90;;;;;;5031836;28;20183;-70
2021/06/02 08:44:24;;;;;;;25.33;4.30;;;16.30;99.90;;;;;;5030378;28;20194;-69
2021/06/02 08:46:52;;;;;;;14.83;3.40;;;16.40;99.90;;;;;;5030690;28;20248;-69
2021/06/02 08:49:21;;;;;;;11.60;3.50;;;16.30;99.90;;;;;;5032161;28;20183;-69
2021/06/02 08:51:48;;;;;;;8.10;3.00;;;16.30;99.90;;;;;;5031709;28;20189;-68
2021/06/02 08:54:16;;;;;;;11.70;3.77;;;16.20;99.90;;;;;;5031982;28;20206;-68
2021/06/02 08:56:45;;;;;;;8.67;3.07;;;16.20;99.90;;;;;;5031114;28;20187;-69
2021/06/02 08:59:12;;;;;;;10.00;3.70;;;16.20;99.90;;;;;;5030793;28;20194;-68
2021/06/02 09:01:40;;;;;;;14.67;3.93;;;16.10;99.90;;;;;;5031084;28;20200;-68
2021/06/02 09:04:09;;;;;;;12.77;3.60;;;16.10;99.90;;;;;;5022371;28;20189;-68
2021/06/02 09:06:54;;;;;;;6.70;3.63;;;16.00;99.90;;;;;;5027104;28;20195;-68
2021/06/02 09:09:23;;;;;;;10.37;3.70;;;15.90;99.90;;;;;;5022947;28;20191;-69
2021/06/02 09:11:51;;;;;;;10.77;3.40;;;15.90;99.90;;;;;;5031318;28;20541;-68
2021/06/02 09:14:31;;;;;;;12.50;3.43;;;15.90;99.90;;;;;;5031107;28;20210;-68
2021/06/02 09:17:01;;;;;;;9.13;2.90;;;15.80;99.90;;;;;;5031763;28;20228;-70
2021/06/02 09:19:38;;;;;;;11.37;3.60;;;15.70;99.90;;;;;;5028626;28;20269;-70
2021/06/02 09:22:10;;;;;;;12.00;3.60;;;15.70;99.90;;;;;;5027962;28;20563;-69
2021/06/02 09:24:51;;;;;;;9.73;3.53;;;15.60;99.90;;;;;;5031695;28;20179;-69
2021/06/02 09:27:37;;;;;;;9.50;3.50;;;15.50;99.90;;;;;;5018648;28;20271;-69
2021/06/02 09:30:06;;;;;;;10.13;3.70;;;15.50;99.90;;;;;;5024789;28;20577;-68
2021/06/02 09:32:43;;;;;;;7.73;3.20;;;15.50;99.90;;;;;;5024507;28;20685;-67
2021/06/02 09:35:11;;;;;;;14.50;7.50;;;15.40;99.90;;;;;;5031280;28;20296;-68
2021/06/02 09:38:09;;;;;;;13.77;8.43;;;15.40;99.90;;;;;;5029528;28;20702;-69
2021/06/02 09:40:40;;;;;;;17.20;5.50;;;15.50;99.90;;;;;;5026222;28;20644;-67
2021/06/02 09:43:08;;;;;;;13.00;3.77;;;15.40;99.90;;;;;;5060945;28;20237;-69
2021/06/02 09:45:35;;;;;;;10.83;4.17;;;15.30;99.90;;;;;;5031038;28;20693;-69
2021/06/02 09:48:05;;;;;;;9.97;4.13;;;15.30;99.90;;;;;;5028120;28;20188;-69
2021/06/02 09:50:36;;;;;;;11.80;3.43;;;15.40;99.90;;;;;;5029507;28;20666;-69
2021/06/02 09:53:07;;;;;;;6.13;3.60;;;15.30;99.90;;;;;;5024034;28;20602;-69
2021/06/02 09:55:38;;;;;;;9.93;3.97;;;15.20;99.90;;;;;;5028287;28;20197;-68
2021/06/02 09:58:08;;;;;;;8.20;3.10;;;15.30;99.90;;;;;;5031519;28;20177;-68
2021/06/02 10:00:41;;;;;;;6.93;2.93;;;15.30;99.90;;;;;;5034470;28;20177;-68
2021/06/02 10:03:13;;;;;;;6.23;2.90;;;15.40;99.90;;;;;;5024677;28;20259;-69
2021/06/02 10:05:42;;;;;;;9.67;4.57;;;15.50;99.90;;;;;;5033206;28;20660;-68
2021/06/02 10:08:11;;;;;;;13.70;4.87;;;15.50;99.90;;;;;;5033594;28;20188;-68
2021/06/02 10:10:42;;;;;;;10.40;5.03;;;15.50;99.90;;;;;;5034275;28;20232;-69
2021/06/02 10:13:13;;;;;;;10.93;4.80;;;15.40;99.90;;;;;;5033654;28;20223;-69
2021/06/02 10:15:46;;;;;;;28.17;5.80;;;15.30;99.90;;;;;;5039622;28;20188;-69
2021/06/02 10:18:28;;;;;;;27.77;6.57;;;15.30;99.90;;;;;;5031321;28;20176;-68
2021/06/02 10:21:13;;;;;;;16.53;6.40;;;15.20;99.90;;;;;;5032140;28;20203;-68
2021/06/02 10:23:43;;;;;;;21.73;5.90;;;15.10;99.90;;;;;;5032581;28;20193;-68
2021/06/02 10:26:19;;;;;;;20.20;6.00;;;15.10;99.90;;;;;;5032012;28;20204;-69
2021/06/02 10:28:49;;;;;;;22.90;6.67;;;15.00;99.90;;;;;;5034238;28;20275;-70
2021/06/02 10:31:18;;;;;;;13.97;5.57;;;15.00;99.90;;;;;;5034052;28;20184;-70
2021/06/02 10:33:46;;;;;;;15.00;4.63;;;14.90;99.90;;;;;;5033580;28;20307;-70
2021/06/02 10:36:13;;;;;;;11.93;3.87;;;14.80;99.90;;;;;;5033554;28;20173;-70
2021/06/02 10:38:47;;;;;;;15.07;4.63;;;14.80;99.90;;;;;;5033931;28;20649;-69
2021/06/02 10:41:49;;;;;;;10.50;4.30;;;14.80;99.90;;;;;;5027111;28;20180;-69
2021/06/02 10:44:22;;;;;;;11.53;4.57;;;14.80;99.90;;;;;;5029615;28;20595;-69
2021/06/02 10:46:51;;;;;;;16.30;6.17;;;14.80;99.90;;;;;;5034341;28;20184;-70
2021/06/02 10:49:29;;;;;;;17.77;5.97;;;14.70;99.90;;;;;;5033916;28;20216;-69
2021/06/02 10:51:56;;;;;;;13.73;5.47;;;14.70;99.90;;;;;;5033089;28;20258;-69
2021/06/02 10:54:37;;;;;;;10.00;4.60;;;14.60;99.90;;;;;;5033390;28;20216;-69
2021/06/02 10:57:10;;;;;;;11.93;4.93;;;14.60;99.90;;;;;;5032810;28;20643;-69
2021/06/02 10:59:39;;;;;;;12.87;5.27;;;14.70;99.90;;;;;;5033868;28;20568;-70
2021/06/02 11:02:17;;;;;;;12.97;5.23;;;14.70;99.90;;;;;;5033530;28;20652;-69
2021/06/02 11:04:56;;;;;;;12.27;4.53;;;14.70;99.90;;;;;;5033748;28;20587;-71
2021/06/02 11:07:26;;;;;;;10.73;4.80;;;14.60;99.90;;;;;;5033401;28;20203;-69
2021/06/02 11:10:06;;;;;;;8.67;4.57;;;14.60;99.90;;;;;;5033228;28;20176;-68
2021/06/02 11:12:49;;;;;;;13.53;5.50;;;14.60;99.90;;;;;;5032257;28;20705;-68
2021/06/02 11:15:34;;;;;;;15.33;4.63;;;14.50;99.90;;;;;;5033355;28;20219;-68
2021/06/02 11:18:10;;;;;;;11.73;5.13;;;14.50;99.90;;;;;;5033484;28;20255;-69
2021/06/02 11:20:44;;;;;;;12.60;4.80;;;14.50;99.90;;;;;;5031468;28;20521;-70
2021/06/02 11:23:14;;;;;;;8.93;4.63;;;14.50;99.90;;;;;;5033006;28;20231;-68
2021/06/02 11:25:43;;;;;;;10.03;4.33;;;14.50;99.90;;;;;;5033362;28;20193;-68
2021/06/02 11:28:43;;;;;;;12.90;4.50;;;14.50;99.90;;;;;;5033130;28;20184;-70
2021/06/02 11:31:24;;;;;;;9.67;4.50;;;14.40;99.90;;;;;;5039406;28;20179;-68
2021/06/02 11:33:53;;;;;;;8.03;4.57;;;14.40;99.90;;;;;;5033327;28;20204;-69
2021/06/02 11:36:21;;;;;;;9.33;5.60;;;14.30;99.90;;;;;;5028465;28;20199;-68
2021/06/02 11:38:48;;;;;;;12.73;6.10;;;14.20;99.90;;;;;;5033251;28;20228;-69
2021/06/02 11:41:16;;;;;;;12.50;6.40;;;14.20;99.90;;;;;;5033218;28;20169;-71
2021/06/02 11:43:43;;;;;;;10.13;5.83;;;14.20;99.90;;;;;;5032885;28;20195;-68
2021/06/02 11:46:11;;;;;;;12.20;4.90;;;14.20;99.90;;;;;;5031858;28;20251;-68
2021/06/02 11:48:40;;;;;;;10.70;5.10;;;14.20;99.90;;;;;;5033117;28;20263;-68
2021/06/02 11:51:09;;;;;;;11.60;5.27;;;14.20;99.90;;;;;;5032254;28;20288;-69
2021/06/02 11:53:40;;;;;;;10.10;4.70;;;14.20;99.90;;;;;;5032981;28;20208;-69
2021/06/02 11:56:07;;;;;;;8.87;3.87;;;14.20;99.90;;;;;;5031916;28;20183;-69
2021/06/02 11:58:35;;;;;;;11.20;4.23;;;14.20;99.90;;;;;;5029263;28;20199;-70
2021/06/02 12:01:03;;;;;;;11.50;5.20;;;14.30;99.90;;;;;;5030062;28;20192;-69
2021/06/02 12:03:31;;;;;;;8.83;4.27;;;14.30;99.90;;;;;;5029811;28;20189;-69
2021/06/02 12:05:58;;;;;;;7.07;3.73;;;14.30;99.90;;;;;;5031851;28;20203;-69
2021/06/02 12:08:26;;;;;;;7.20;3.33;;;14.20;99.90;;;;;;5028406;28;20216;-69
2021/06/02 12:10:58;;;;;;;11.50;4.03;;;14.20;99.90;;;;;;5028985;28;20176;-68
2021/06/02 12:13:34;;;;;;;8.50;4.00;;;14.20;99.90;;;;;;5028381;28;20196;-69
2021/06/02 12:16:14;;;;;;;8.03;4.23;;;14.20;99.90;;;;;;5031765;28;20185;-68
2021/06/02 12:18:50;;;;;;;7.93;3.93;;;14.20;99.90;;;;;;5023168;28;20180;-70
2021/06/02 12:21:18;;;;;;;10.10;4.00;;;14.20;99.90;;;;;;5031686;28;20263;-69
2021/06/02 12:23:55;;;;;;;10.37;4.10;;;14.10;99.90;;;;;;5032498;28;20173;-70
2021/06/02 12:26:33;;;;;;;8.23;3.90;;;14.10;99.90;;;;;;5031427;28;20180;-70
2021/06/02 12:29:06;;;;;;;10.20;3.90;;;14.10;99.90;;;;;;5021624;28;20189;-69
2021/06/02 12:31:36;;;;;;;9.17;4.20;;;14.00;99.90;;;;;;5031607;28;20181;-70
2021/06/02 12:34:23;;;;;;;17.30;4.57;;;14.00;99.90;;;;;;5030815;28;20204;-69
2021/06/02 12:36:56;;;;;;;14.67;5.33;;;14.00;99.90;;;;;;5032306;28;20177;-70
2021/06/02 12:39:28;;;;;;;14.77;5.20;;;13.90;99.90;;;;;;5029486;28;20574;-68
2021/06/02 12:41:58;;;;;;;12.77;5.27;;;13.90;99.90;;;;;;5030450;28;20264;-68
2021/06/02 12:44:28;;;;;;;19.37;5.50;;;13.90;99.90;;;;;;5031892;28;20211;-69
2021/06/02 12:47:00;;;;;;;20.80;6.17;;;13.90;99.90;;;;;;5024494;28;20200;-69
2021/06/02 12:49:29;;;;;;;20.93;6.03;;;13.90;99.90;;;;;;5030848;28;20176;-69
2021/06/02 12:51:57;;;;;;;27.50;6.20;;;13.90;99.90;;;;;;5032120;28;20195;-69
2021/06/02 12:54:31;;;;;;;14.60;5.60;;;13.80;99.90;;;;;;5031804;28;20671;-69
2021/06/02 12:57:00;;;;;;;12.97;5.73;;;13.70;99.90;;;;;;5031763;28;20184;-68
2021/06/02 12:59:36;;;;;;;14.67;6.30;;;13.80;99.90;;;;;;5032160;28;20184;-69
2021/06/02 13:02:12;;;;;;;13.37;5.80;;;13.70;99.90;;;;;;5031203;28;20172;-69
2021/06/02 13:04:40;;;;;;;14.80;5.37;;;13.70;99.90;;;;;;5029991;28;20208;-69
2021/06/02 13:07:08;;;;;;;13.57;5.37;;;13.60;99.90;;;;;;5029321;28;20256;-68
2021/06/02 13:09:35;;;;;;;13.20;5.17;;;13.60;99.90;;;;;;5032180;28;20654;-69
2021/06/02 13:12:03;;;;;;;12.80;5.80;;;13.50;99.90;;;;;;5030628;28;20185;-69
2021/06/02 13:14:40;;;;;;;16.23;5.33;;;13.50;99.90;;;;;;5031482;28;20599;-70
2021/06/02 13:17:08;;;;;;;13.83;5.13;;;13.50;99.90;;;;;;5031938;28;20176;-69
2021/06/02 13:19:38;;;;;;;13.57;4.90;;;13.50;99.90;;;;;;5031970;28;20513;-69
2021/06/02 13:22:23;;;;;;;12.13;5.83;;;13.50;99.90;;;;;;5030548;28;20185;-70
2021/06/02 13:24:51;;;;;;;13.57;5.77;;;13.40;99.90;;;;;;5031858;28;20177;-69
2021/06/02 13:27:20;;;;;;;18.00;6.20;;;13.40;99.90;;;;;;5031433;28;20175;-68
2021/06/02 13:30:10;;;;;;;18.27;6.03;;;13.40;99.90;;;;;;5032011;28;20191;-69
2021/06/02 13:32:38;;;;;;;12.17;5.50;;;13.40;99.90;;;;;;5023985;28;20183;-70
2021/06/02 13:35:19;;;;;;;17.90;8.80;;;13.30;99.90;;;;;;5034883;28;20244;-68
2021/06/02 13:37:47;;;;;;;15.87;7.00;;;13.30;99.90;;;;;;5030566;28;20184;-69